Addis, Louisiana
Current Conditions -  °F | °C
As of 1:53 AM on Thursday 27 Nov 2014 (Local Time) from KBTR Reporting Station
Clear Clear  
Wind Chill: 44°   Ceiling: Unl
Heat Index: 46°   Visibility: 10mi
Dew Point: 42°   Wind: 5mph
Humidity: 86%   Direction: 250°WSW
Pressure: 30.31"   Gusts: NA
Location:  30.35°N, 91.27°W
Report Text: KBTR 270753Z AUTO 25004KT 10SM CLR 08/06 A3031 RMK AO2 SLP264 T00780056 TSNO
Loading
Personal Weather Stations






























Interactive Weather Map New forecast layout! Learn more

10-Day Weather Forecast

Advertisements
Track Severe Weather on mobile